Time;durP1;ratioP1;P1;durP2;ratioP2;P2;SDS_P1;SDS_P2;PMS_P1;PMS_P2;Temp;Humidity;BMP_temperature;BMP_pressure;BME280_temperature;BME280_humidity;BME280_pressure;Samples;Min_cycle;Max_cycle;Signal;HPM_P1;HPM_P2
2023/04/14 00:01:32;;;;;;;2.33;1.73;;;;;;;4.73;100.00;95908.22;5056346;28;20211;-57
2023/04/14 00:03:58;;;;;;;1.70;1.40;;;;;;;4.69;100.00;95913.84;5043792;28;20203;-58
2023/04/14 00:06:25;;;;;;;2.20;1.30;;;;;;;4.73;100.00;95918.69;5055470;28;20655;-58
2023/04/14 00:08:52;;;;;;;1.93;1.33;;;;;;;4.71;100.00;95917.97;5056124;28;20203;-58
2023/04/14 00:11:18;;;;;;;1.73;1.57;;;;;;;4.72;100.00;95919.66;5056226;28;20211;-58
2023/04/14 00:13:45;;;;;;;1.73;1.60;;;;;;;4.74;100.00;95925.63;5048929;28;20222;-59
2023/04/14 00:16:12;;;;;;;3.03;1.50;;;;;;;4.75;100.00;95922.00;5042999;28;20207;-58
2023/04/14 00:18:40;;;;;;;1.80;1.70;;;;;;;4.75;100.00;95918.56;5048751;28;20289;-58
2023/04/14 00:21:06;;;;;;;3.33;2.27;;;;;;;4.74;100.00;95920.38;5050063;28;20214;-58
2023/04/14 00:23:33;;;;;;;2.17;1.90;;;;;;;4.67;100.00;95918.38;5055719;28;20210;-58
2023/04/14 00:25:59;;;;;;;2.33;2.00;;;;;;;4.72;100.00;95917.03;5055382;28;20274;-59
2023/04/14 00:28:26;;;;;;;2.77;2.27;;;;;;;4.66;100.00;95928.00;5055933;28;20242;-59
2023/04/14 00:30:52;;;;;;;3.07;2.43;;;;;;;4.65;100.00;95921.09;5055047;28;20203;-59
2023/04/14 00:33:19;;;;;;;3.03;2.73;;;;;;;4.60;100.00;95923.28;5055438;28;20203;-58
2023/04/14 00:35:46;;;;;;;2.53;2.27;;;;;;;4.63;100.00;95917.78;5044137;28;20837;-59
2023/04/14 00:38:13;;;;;;;2.60;1.93;;;;;;;4.55;100.00;95919.34;5055540;28;20706;-59
2023/04/14 00:40:39;;;;;;;4.10;2.33;;;;;;;4.46;100.00;95926.19;5055476;28;20206;-58
2023/04/14 00:43:06;;;;;;;1.80;1.70;;;;;;;4.46;100.00;95926.19;5055507;28;20649;-59
2023/04/14 00:45:37;;;;;;;4.23;2.60;;;;;;;4.39;100.00;95931.06;5054889;28;20636;-57
2023/04/14 00:48:03;;;;;;;2.77;2.10;;;;;;;4.34;100.00;95933.22;5055492;28;20203;-59
2023/04/14 00:50:30;;;;;;;3.03;2.00;;;;;;;4.35;100.00;95931.44;5055480;28;20602;-59
2023/04/14 00:52:58;;;;;;;3.40;1.80;;;;;;;4.39;100.00;95935.47;5055639;28;20272;-58
2023/04/14 00:55:25;;;;;;;3.53;1.97;;;;;;;4.34;100.00;95935.00;5055292;28;20202;-58
2023/04/14 00:57:52;;;;;;;2.80;1.87;;;;;;;4.34;100.00;95927.16;5054912;28;20693;-58
2023/04/14 01:00:19;;;;;;;2.07;1.70;;;;;;;4.38;100.00;95933.81;5044942;28;20218;-58
2023/04/14 01:02:45;;;;;;;2.17;1.97;;;;;;;4.42;100.00;95928.22;5055463;28;20238;-58
2023/04/14 01:05:11;;;;;;;3.57;1.93;;;;;;;4.46;100.00;95931.41;5052251;28;20581;-59
2023/04/14 01:07:38;;;;;;;3.47;2.53;;;;;;;4.47;100.00;95930.44;5055238;28;20199;-58
2023/04/14 01:10:07;;;;;;;3.33;2.03;;;;;;;4.56;100.00;95929.72;5054746;28;20230;-58
2023/04/14 01:12:54;;;;;;;4.53;2.47;;;;;;;4.60;100.00;95933.75;5049680;28;20220;-58
2023/04/14 01:15:25;;;;;;;2.10;1.90;;;;;;;4.63;100.00;95924.81;5054837;28;20792;-58
2023/04/14 01:17:56;;;;;;;3.67;2.23;;;;;;;4.70;100.00;95936.44;5054698;28;20211;-58
2023/04/14 01:20:28;;;;;;;2.13;2.03;;;;;;;4.68;100.00;95947.03;5051528;28;20204;-58
2023/04/14 01:22:58;;;;;;;3.97;2.90;;;;;;;4.66;100.00;95940.28;5053151;28;20207;-58
2023/04/14 01:26:09;;;;;;;2.73;2.53;;;;;;;4.64;100.00;95944.81;5061076;28;20213;-58
2023/04/14 01:28:55;;;;;;;3.20;2.30;;;;;;;4.66;100.00;95948.97;5070491;28;20240;-59
2023/04/14 01:31:27;;;;;;;3.07;2.57;;;;;;;4.59;100.00;95950.41;5066296;28;20203;-61
2023/04/14 01:33:57;;;;;;;3.67;2.53;;;;;;;4.60;100.00;95952.09;5066025;28;20238;-59
2023/04/14 01:36:31;;;;;;;2.63;2.43;;;;;;;4.60;100.00;95959.94;5064163;28;20207;-59
2023/04/14 01:38:58;;;;;;;2.60;2.40;;;;;;;4.59;100.00;95958.25;5050617;28;20219;-59
2023/04/14 01:41:27;;;;;;;4.13;2.50;;;;;;;4.58;100.00;95951.34;5060765;28;20289;-59
2023/04/14 01:43:54;;;;;;;4.33;2.50;;;;;;;4.60;100.00;95956.47;5056115;28;20210;-59
2023/04/14 01:46:21;;;;;;;2.83;2.57;;;;;;;4.60;100.00;95954.69;5055316;28;20203;-59
2023/04/14 01:48:49;;;;;;;3.53;2.47;;;;;;;4.50;100.00;95949.34;5054411;28;20548;-59
2023/04/14 01:51:18;;;;;;;2.63;2.27;;;;;;;4.50;100.00;95953.75;5055061;28;20207;-58
2023/04/14 01:53:45;;;;;;;2.60;2.40;;;;;;;4.57;100.00;95948.88;5054781;28;20222;-58
2023/04/14 01:56:12;;;;;;;2.87;2.67;;;;;;;4.53;100.00;95947.47;5054665;28;20241;-59
2023/04/14 01:58:42;;;;;;;2.50;2.30;;;;;;;4.48;100.00;95950.44;5056222;28;20227;-59
2023/04/14 02:01:08;;;;;;;3.17;2.43;;;;;;;4.39;100.00;95949.38;5059339;28;20701;-59
2023/04/14 02:03:35;;;;;;;2.30;2.07;;;;;;;4.40;100.00;95947.59;5048441;28;20646;-58
2023/04/14 02:06:05;;;;;;;3.57;2.50;;;;;;;4.40;100.00;95953.66;5052657;28;20211;-59
2023/04/14 02:08:32;;;;;;;2.60;2.40;;;;;;;4.39;100.00;95948.56;5054587;28;20226;-58
2023/04/14 02:10:59;;;;;;;2.23;2.03;;;;;;;4.39;100.00;95952.00;5051853;28;20378;-58
2023/04/14 02:13:27;;;;;;;3.70;2.20;;;;;;;4.37;100.00;95947.84;5054354;28;20221;-59
2023/04/14 02:15:54;;;;;;;2.57;2.27;;;;;;;4.38;100.00;95952.97;5050015;28;20214;-58
2023/04/14 02:18:23;;;;;;;2.83;2.07;;;;;;;4.35;100.00;95942.75;5055823;28;20233;-59
2023/04/14 02:20:51;;;;;;;5.33;2.93;;;;;;;4.39;100.00;95945.94;5059628;28;20204;-58
2023/04/14 02:23:19;;;;;;;3.80;2.50;;;;;;;4.43;100.00;95940.31;5059094;28;20563;-59
2023/04/14 02:25:50;;;;;;;2.27;2.17;;;;;;;4.44;100.00;95933.31;5054599;28;20543;-58
2023/04/14 02:28:19;;;;;;;3.77;2.77;;;;;;;4.55;100.00;95935.06;5045165;28;20200;-58
2023/04/14 02:30:48;;;;;;;3.03;2.53;;;;;;;4.62;100.00;95934.44;5054064;28;20518;-58
2023/04/14 02:33:19;;;;;;;3.90;2.70;;;;;;;4.68;100.00;95936.56;5053282;28;20207;-59
2023/04/14 02:35:47;;;;;;;6.00;2.63;;;;;;;4.73;100.00;95938.81;5054939;28;20209;-58
2023/04/14 02:38:21;;;;;;;5.00;2.70;;;;;;;4.75;100.00;95940.34;5057955;28;20214;-58
2023/04/14 02:40:48;;;;;;;3.50;2.83;;;;;;;4.71;100.00;95935.50;5057849;28;20214;-59
2023/04/14 02:43:18;;;;;;;2.83;2.50;;;;;;;4.76;100.00;95936.78;5057895;28;20210;-58
2023/04/14 02:45:47;;;;;;;5.03;2.40;;;;;;;4.75;100.00;95942.97;5062569;28;20207;-59
2023/04/14 02:48:15;;;;;;;7.47;2.83;;;;;;;4.78;100.00;95940.09;5057302;28;20246;-58
2023/04/14 02:50:45;;;;;;;4.47;3.03;;;;;;;4.73;100.00;95934.41;5057593;28;20203;-59
2023/04/14 02:53:12;;;;;;;3.93;2.53;;;;;;;4.76;100.00;95942.03;5057729;28;20591;-58
2023/04/14 02:55:40;;;;;;;4.37;2.83;;;;;;;4.75;100.00;95940.34;5051125;28;20675;-58
2023/04/14 02:58:07;;;;;;;3.73;2.50;;;;;;;4.75;100.00;95945.59;5052103;28;20685;-58
2023/04/14 03:00:34;;;;;;;5.13;2.60;;;;;;;4.71;100.00;95945.97;5056980;28;20241;-58
2023/04/14 03:03:02;;;;;;;3.83;2.20;;;;;;;4.72;100.00;95934.53;5056933;28;20616;-59
2023/04/14 03:05:29;;;;;;;3.83;2.77;;;;;;;4.73;100.00;95937.03;5057176;28;20284;-59
2023/04/14 03:07:55;;;;;;;4.37;2.40;;;;;;;4.70;100.00;95929.44;5057200;28;20231;-59
2023/04/14 03:10:23;;;;;;;3.03;2.37;;;;;;;4.69;100.00;95929.53;5057229;28;20210;-59
2023/04/14 03:12:51;;;;;;;5.47;2.47;;;;;;;4.65;100.00;95936.81;5057057;28;20207;-58
2023/04/14 03:15:18;;;;;;;3.60;2.67;;;;;;;4.56;100.00;95934.97;5056863;28;20652;-58
2023/04/14 03:17:46;;;;;;;4.30;2.93;;;;;;;4.53;100.00;95932.59;5051039;28;20659;-58
2023/04/14 03:20:14;;;;;;;2.90;2.70;;;;;;;4.57;100.00;95936.59;5056586;28;20223;-58
2023/04/14 03:22:42;;;;;;;3.13;2.70;;;;;;;4.61;100.00;95939.78;5051801;28;20207;-59
2023/04/14 03:25:11;;;;;;;5.20;3.30;;;;;;;4.56;100.00;95940.19;5056850;28;20211;-59
2023/04/14 03:27:38;;;;;;;2.93;2.57;;;;;;;4.44;100.00;95928.06;5056372;28;20202;-59
2023/04/14 03:30:08;;;;;;;2.77;2.57;;;;;;;4.53;100.00;95929.97;5056840;28;20207;-58
2023/04/14 03:32:40;;;;;;;3.23;2.53;;;;;;;4.40;100.00;95937.97;5048609;28;20214;-58
2023/04/14 03:35:08;;;;;;;3.67;2.40;;;;;;;4.41;100.00;95926.53;5055931;28;20238;-61
2023/04/14 03:37:38;;;;;;;5.00;2.50;;;;;;;4.33;100.00;95938.56;5050990;28;20208;-57
2023/04/14 03:40:08;;;;;;;3.40;3.10;;;;;;;4.39;100.00;95936.28;5056579;28;20245;-60
2023/04/14 03:42:35;;;;;;;3.07;2.57;;;;;;;4.39;100.00;95930.25;5056689;28;20211;-58
2023/04/14 03:45:02;;;;;;;7.10;2.73;;;;;;;4.30;100.00;95941.44;5059358;28;20252;-58
2023/04/14 03:47:31;;;;;;;4.30;2.97;;;;;;;4.29;100.00;95945.81;5055877;28;20207;-59
2023/04/14 03:50:00;;;;;;;3.10;2.80;;;;;;;4.33;100.00;95951.66;5056148;28;20203;-58
2023/04/14 03:52:28;;;;;;;5.03;2.80;;;;;;;4.31;100.00;95953.56;5056441;28;20257;-59
2023/04/14 03:54:57;;;;;;;3.37;2.63;;;;;;;4.30;100.00;95965.00;5058277;28;20203;-58
2023/04/14 03:57:24;;;;;;;4.53;2.43;;;;;;;4.24;100.00;95960.25;5062782;28;20226;-59
2023/04/14 03:59:52;;;;;;;3.30;3.00;;;;;;;4.26;100.00;95960.94;5066722;28;20237;-59
2023/04/14 04:02:18;;;;;;;3.33;2.70;;;;;;;4.34;100.00;95961.19;5066375;28;20211;-58
2023/04/14 04:04:47;;;;;;;4.13;3.17;;;;;;;4.41;100.00;95957.13;5058074;28;20538;-58
2023/04/14 04:07:14;;;;;;;2.73;2.53;;;;;;;4.46;100.00;95968.06;5059135;28;20199;-58
2023/04/14 04:09:44;;;;;;;6.90;2.80;;;;;;;4.49;100.00;95971.28;5056509;28;20231;-58
2023/04/14 04:12:11;;;;;;;3.00;2.40;;;;;;;4.53;100.00;95969.25;5056220;28;20346;-58
2023/04/14 04:14:39;;;;;;;3.53;2.70;;;;;;;4.64;100.00;95961.34;5056002;28;20218;-59
2023/04/14 04:17:07;;;;;;;5.73;2.77;;;;;;;4.68;100.00;95968.00;5048705;28;20211;-59
2023/04/14 04:19:35;;;;;;;5.43;3.00;;;;;;;4.71;100.00;95970.34;5055492;28;20223;-58
2023/04/14 04:22:03;;;;;;;4.00;2.90;;;;;;;4.76;100.00;95973.44;5048833;28;20216;-58
2023/04/14 04:24:33;;;;;;;3.93;2.57;;;;;;;4.81;100.00;95979.16;5048397;28;20543;-59
2023/04/14 04:27:00;;;;;;;5.37;2.87;;;;;;;4.84;100.00;95975.44;5055749;28;20202;-58
2023/04/14 04:29:26;;;;;;;4.70;2.83;;;;;;;4.88;100.00;95967.22;5055537;28;20667;-58
2023/04/14 04:31:53;;;;;;;2.70;2.50;;;;;;;4.92;100.00;95968.63;5055768;28;20234;-59
2023/04/14 04:34:22;;;;;;;4.00;2.10;;;;;;;4.91;100.00;95974.84;5049016;28;20252;-59
2023/04/14 04:36:50;;;;;;;4.00;2.60;;;;;;;4.85;100.00;95975.31;5054628;28;20602;-59
2023/04/14 04:39:18;;;;;;;3.57;2.60;;;;;;;4.89;100.00;95966.25;5055314;28;20227;-59
2023/04/14 04:41:44;;;;;;;2.90;2.50;;;;;;;4.95;100.00;95975.41;5055517;28;20207;-59
2023/04/14 04:44:11;;;;;;;2.70;2.47;;;;;;;4.98;100.00;95972.53;5055497;28;20544;-58
2023/04/14 04:46:50;;;;;;;2.87;2.43;;;;;;;5.04;100.00;95985.13;5058386;28;20203;-59
2023/04/14 04:49:19;;;;;;;5.40;2.80;;;;;;;5.03;100.00;95979.06;5054110;28;20204;-59
2023/04/14 04:51:45;;;;;;;3.40;2.20;;;;;;;5.06;100.00;95983.22;5055167;28;20207;-59
2023/04/14 04:54:12;;;;;;;4.17;2.40;;;;;;;5.01;100.00;95980.97;5055349;28;20211;-58
2023/04/14 04:56:40;;;;;;;3.77;2.40;;;;;;;5.16;100.00;95983.31;5055209;28;20219;-59
2023/04/14 04:59:06;;;;;;;4.50;2.90;;;;;;;4.99;100.00;95982.06;5054349;28;20210;-59
2023/04/14 05:01:33;;;;;;;5.53;3.00;;;;;;;4.91;100.00;95989.72;5055005;28;20203;-59
2023/04/14 05:04:00;;;;;;;7.33;3.60;;;;;;;4.98;100.00;95985.63;5054910;28;20229;-59
2023/04/14 05:06:27;;;;;;;6.47;3.50;;;;;;;4.96;100.00;95982.28;5054851;28;20210;-59
2023/04/14 05:08:54;;;;;;;5.37;2.97;;;;;;;4.96;100.00;95988.38;5055370;28;20596;-58
2023/04/14 05:11:20;;;;;;;4.93;2.50;;;;;;;4.98;100.00;95985.63;5055265;28;20210;-59
2023/04/14 05:13:48;;;;;;;3.57;2.60;;;;;;;4.97;100.00;95990.03;5055455;28;20210;-59
2023/04/14 05:16:15;;;;;;;5.73;2.90;;;;;;;4.91;100.00;95987.94;5048108;28;20211;-58
2023/04/14 05:18:42;;;;;;;4.47;2.90;;;;;;;4.98;100.00;95996.13;5054863;28;20596;-59
2023/04/14 05:21:11;;;;;;;3.83;2.20;;;;;;;5.15;100.00;95994.72;5056332;28;20222;-60
2023/04/14 05:23:38;;;;;;;3.80;2.40;;;;;;;5.17;100.00;96001.53;5055090;28;20540;-58
2023/04/14 05:26:06;;;;;;;4.40;2.40;;;;;;;5.16;100.00;96005.09;5053408;28;20257;-59
2023/04/14 05:28:32;;;;;;;3.47;2.30;;;;;;;5.13;100.00;95999.28;5055006;28;20635;-60
2023/04/14 05:31:00;;;;;;;4.83;2.70;;;;;;;5.11;100.00;96001.19;5048688;28;20203;-59
2023/04/14 05:33:27;;;;;;;3.50;2.80;;;;;;;5.15;100.00;96002.59;5049825;28;20499;-57
2023/04/14 05:35:53;;;;;;;3.40;3.03;;;;;;;5.11;100.00;96006.41;5054670;28;20203;-58
2023/04/14 05:38:20;;;;;;;5.53;3.00;;;;;;;5.22;100.00;96009.84;5054833;28;20226;-59
2023/04/14 05:40:47;;;;;;;5.47;2.80;;;;;;;5.31;100.00;96003.84;5048908;28;20235;-58
2023/04/14 05:43:14;;;;;;;8.80;3.27;;;;;;;5.40;100.00;96002.25;5054597;28;20272;-58
2023/04/14 05:45:40;;;;;;;6.37;3.23;;;;;;;5.61;100.00;96010.94;5049077;28;20631;-58
2023/04/14 05:48:08;;;;;;;3.60;2.67;;;;;;;6.29;100.00;96006.91;5054424;28;20211;-59
2023/04/14 05:50:36;;;;;;;5.67;2.70;;;;;;;7.13;100.00;96013.47;5041937;28;20210;-58
2023/04/14 05:53:03;;;;;;;6.03;2.77;;;;;;;8.29;100.00;96020.28;5054513;28;20211;-58
2023/04/14 05:55:29;;;;;;;3.07;2.03;;;;;;;8.81;94.90;96019.63;5054144;28;20273;-58
2023/04/14 05:57:56;;;;;;;3.40;2.30;;;;;;;9.50;90.94;96024.25;5054553;28;20203;-58
2023/04/14 06:00:24;;;;;;;4.63;3.10;;;;;;;10.20;82.26;96027.81;5054451;28;20265;-58
2023/04/14 06:02:50;;;;;;;4.27;2.60;;;;;;;10.66;83.35;96029.22;5054037;28;20207;-58
2023/04/14 06:05:18;;;;;;;4.53;2.40;;;;;;;11.13;77.92;96022.44;5053946;28;20655;-59
2023/04/14 06:07:45;;;;;;;4.30;2.27;;;;;;;11.80;74.83;96037.28;5052901;28;20221;-59
2023/04/14 06:10:12;;;;;;;5.27;2.10;;;;;;;11.53;75.52;96023.50;5054340;28;20221;-59
2023/04/14 06:12:38;;;;;;;5.83;2.27;;;;;;;10.99;77.75;96031.81;5058308;28;20206;-59
2023/04/14 06:15:06;;;;;;;3.57;2.00;;;;;;;11.36;76.97;96025.31;5059750;28;20202;-58
2023/04/14 06:17:33;;;;;;;3.83;1.87;;;;;;;11.74;75.34;96027.38;5063894;28;20215;-58
2023/04/14 06:20:01;;;;;;;2.60;1.63;;;;;;;12.71;69.00;96031.69;5052878;28;20228;-59
2023/04/14 06:22:29;;;;;;;2.33;1.77;;;;;;;11.75;71.66;96031.69;5058288;28;20271;-58
2023/04/14 06:24:56;;;;;;;3.07;2.10;;;;;;;11.43;70.14;96034.25;5058109;28;20266;-60
2023/04/14 06:27:22;;;;;;;3.40;2.20;;;;;;;10.90;71.34;96031.97;5055275;28;20212;-59
2023/04/14 06:29:49;;;;;;;2.27;1.50;;;;;;;10.47;75.68;96035.56;5063601;28;20547;-59
2023/04/14 06:32:15;;;;;;;3.67;1.60;;;;;;;10.13;78.18;96032.03;5060370;28;20226;-59
2023/04/14 06:34:42;;;;;;;3.30;1.97;;;;;;;9.45;82.02;96029.19;5062566;28;20238;-58
2023/04/14 06:37:08;;;;;;;3.50;1.40;;;;;;;9.53;83.85;96026.59;5056306;28;20207;-59
2023/04/14 06:39:36;;;;;;;2.77;1.63;;;;;;;10.12;81.98;96030.38;5059843;28;20203;-59
2023/04/14 06:42:03;;;;;;;3.60;1.50;;;;;;;10.69;75.40;96019.16;5050186;28;20208;-59
2023/04/14 06:44:29;;;;;;;4.80;1.60;;;;;;;10.75;74.48;96026.44;5059476;28;20536;-58
2023/04/14 06:46:55;;;;;;;5.67;1.87;;;;;;;11.08;74.70;96018.63;5063260;28;20222;-59
2023/04/14 06:49:23;;;;;;;2.10;1.87;;;;;;;11.43;73.91;96007.78;5057310;28;20215;-59
2023/04/14 06:51:49;;;;;;;4.10;1.90;;;;;;;11.81;73.36;96006.34;5057707;28;20227;-58
2023/04/14 06:54:16;;;;;;;4.13;2.10;;;;;;;11.82;75.12;96008.00;5057447;28;20206;-59
2023/04/14 06:56:43;;;;;;;4.77;1.80;;;;;;;12.12;69.80;96004.66;5057551;28;20215;-58
2023/04/14 06:59:10;;;;;;;3.03;1.77;;;;;;;12.45;69.21;96016.03;5057692;28;20207;-59
2023/04/14 07:01:36;;;;;;;3.77;1.90;;;;;;;12.54;68.74;96003.56;5057432;28;20222;-59
2023/04/14 07:04:03;;;;;;;1.67;1.50;;;;;;;12.76;65.08;96008.94;5056811;28;20643;-59
2023/04/14 07:06:30;;;;;;;3.90;1.60;;;;;;;12.46;65.40;95997.31;5057187;28;20214;-58
2023/04/14 07:08:56;;;;;;;4.47;2.10;;;;;;;12.52;67.18;95998.44;5060000;28;20199;-59
2023/04/14 07:11:23;;;;;;;4.27;1.90;;;;;;;12.51;65.77;95991.47;5069514;28;20188;-59
2023/04/14 07:13:50;;;;;;;3.57;1.73;;;;;;;12.77;65.73;95989.38;5059142;28;20282;-59
2023/04/14 07:16:17;;;;;;;6.90;2.07;;;;;;;12.94;66.63;95990.97;5075016;28;20230;-59
2023/04/14 07:18:43;;;;;;;2.30;1.73;;;;;;;12.90;66.12;95981.69;5078173;28;20237;-59
2023/04/14 07:21:10;;;;;;;3.93;2.10;;;;;;;12.87;63.99;95989.16;5057068;28;20231;-59
2023/04/14 07:23:36;;;;;;;2.97;1.57;;;;;;;12.62;64.83;95983.13;5056265;28;20207;-59
2023/04/14 07:26:04;;;;;;;3.50;1.70;;;;;;;12.51;66.05;95980.03;5056937;28;20538;-58
2023/04/14 07:28:31;;;;;;;3.20;1.73;;;;;;;12.77;66.15;95985.91;5057261;28;20215;-59
2023/04/14 07:30:59;;;;;;;4.93;1.87;;;;;;;13.08;67.56;95980.59;5056735;28;20290;-58
2023/04/14 07:33:29;;;;;;;2.77;1.73;;;;;;;13.05;65.70;95980.97;5056214;28;20695;-59
2023/04/14 07:35:55;;;;;;;3.83;1.67;;;;;;;13.43;63.71;95974.78;5056412;28;20237;-59
2023/04/14 07:38:22;;;;;;;4.20;1.90;;;;;;;13.27;63.50;95974.91;5051795;28;20526;-58
2023/04/14 07:40:48;;;;;;;2.30;1.50;;;;;;;13.39;63.32;95974.28;5056383;28;20238;-58
2023/04/14 07:43:15;;;;;;;4.57;2.10;;;;;;;13.57;64.01;95971.34;5057058;28;20213;-59
2023/04/14 07:45:42;;;;;;;2.73;1.83;;;;;;;13.48;61.84;95977.72;5062338;28;20776;-59
2023/04/14 07:48:10;;;;;;;3.43;1.90;;;;;;;13.58;61.83;95970.34;5056323;28;20330;-58
2023/04/14 07:50:36;;;;;;;4.50;2.30;;;;;;;13.36;62.81;95969.34;5056875;28;20217;-58
2023/04/14 07:53:03;;;;;;;4.10;2.00;;;;;;;13.22;62.22;95974.56;5052098;28;20203;-58
2023/04/14 07:55:29;;;;;;;1.73;1.50;;;;;;;13.43;61.15;95980.09;5056061;28;20211;-58
2023/04/14 07:57:56;;;;;;;4.03;2.63;;;;;;;13.31;59.96;95984.16;5056386;28;20217;-59
2023/04/14 08:00:22;;;;;;;3.97;2.07;;;;;;;13.18;62.83;95975.97;5056096;28;20237;-58
2023/04/14 08:02:49;;;;;;;3.80;1.80;;;;;;;12.94;61.09;95972.38;5053221;28;20211;-58
2023/04/14 08:05:17;;;;;;;4.13;2.07;;;;;;;13.27;61.62;95981.03;5055615;28;20210;-59
2023/04/14 08:07:44;;;;;;;3.50;1.83;;;;;;;13.13;61.22;95981.78;5056249;28;20210;-59
2023/04/14 08:10:10;;;;;;;3.00;1.80;;;;;;;13.39;61.42;95978.81;5055808;28;20238;-58
2023/04/14 08:12:37;;;;;;;4.07;1.80;;;;;;;13.50;61.13;95978.38;5056054;28;20218;-59
2023/04/14 08:15:04;;;;;;;4.20;1.70;;;;;;;13.82;60.64;95978.13;5055950;28;20211;-58
2023/04/14 08:17:31;;;;;;;4.50;1.83;;;;;;;13.94;58.98;95974.03;5056003;28;20210;-58
2023/04/14 08:19:57;;;;;;;4.67;2.20;;;;;;;14.03;57.52;95981.94;5053725;28;20211;-59
2023/04/14 08:22:25;;;;;;;4.67;1.80;;;;;;;14.17;60.00;95971.31;5056265;28;20219;-59
2023/04/14 08:24:51;;;;;;;2.70;1.80;;;;;;;14.34;58.82;95974.69;5053593;28;20207;-58
2023/04/14 08:27:18;;;;;;;2.27;1.60;;;;;;;14.19;56.81;95977.28;5055709;28;20203;-58
2023/04/14 08:29:44;;;;;;;5.55;1.40;;;;;;;14.17;55.67;95975.84;5055523;28;20682;-58
2023/04/14 08:32:11;;;;;;;3.90;1.53;;;;;;;13.82;55.97;95970.16;5055727;28;20203;-59
2023/04/14 08:34:38;;;;;;;3.83;2.00;;;;;;;14.05;58.22;95975.44;5054749;28;20321;-59
2023/04/14 08:37:05;;;;;;;4.40;1.90;;;;;;;14.11;60.13;95974.69;5055295;28;20206;-59
2023/04/14 08:39:32;;;;;;;2.30;1.40;;;;;;;14.11;57.64;95968.56;5055531;28;20539;-57
2023/04/14 08:41:59;;;;;;;2.67;1.47;;;;;;;14.29;61.73;95967.22;5055728;28;20234;-58
2023/04/14 08:44:25;;;;;;;2.83;1.60;;;;;;;14.63;56.18;95968.53;5056400;28;20207;-59
2023/04/14 08:46:52;;;;;;;3.95;1.73;;;;;;;14.40;56.99;95965.97;5062183;28;20276;-59
2023/04/14 08:49:24;;;;;;;7.17;2.27;;;;;;;14.44;58.38;95964.59;5054743;28;20273;-58
2023/04/14 08:51:51;;;;;;;5.80;1.73;;;;;;;15.15;57.35;95968.38;5055216;28;20195;-58
2023/04/14 08:54:19;;;;;;;1.58;1.40;;;;;;;15.45;55.11;95970.75;5055275;28;20210;-58
2023/04/14 08:56:47;;;;;;;2.93;1.50;;;;;;;15.74;55.33;95963.66;5055160;28;20290;-58
2023/04/14 08:59:14;;;;;;;5.35;2.10;;;;;;;15.32;51.94;95962.63;5055122;28;20319;-59
2023/04/14 09:01:40;;;;;;;3.83;1.50;;;;;;;15.19;52.74;95954.50;5054886;28;20245;-59
2023/04/14 09:04:07;;;;;;;5.13;1.83;;;;;;;15.97;53.89;95964.28;5054944;28;20218;-58
2023/04/14 09:06:35;;;;;;;4.10;2.03;;;;;;;15.81;52.10;95965.38;5054814;28;20207;-59
2023/04/14 09:09:05;;;;;;;4.25;1.50;;;;;;;15.59;54.18;95962.94;5054678;28;20203;-58
2023/04/14 09:11:32;;;;;;;5.90;2.10;;;;;;;15.57;51.55;95949.78;5052985;28;20207;-59
2023/04/14 09:14:00;;;;;;;3.80;2.10;;;;;;;16.10;53.63;95961.72;5043775;28;20538;-59
2023/04/14 09:16:28;;;;;;;2.85;1.80;;;;;;;16.67;51.86;95958.03;5043032;28;20566;-59
2023/04/14 09:18:55;;;;;;;7.95;4.47;;;;;;;17.10;51.50;95955.97;5054459;28;20215;-58
2023/04/14 09:21:21;;;;;;;6.50;2.22;;;;;;;17.29;48.60;95955.19;5054458;28;20558;-59
2023/04/14 09:23:48;;;;;;;5.63;2.30;;;;;;;16.35;48.27;95952.25;5054323;28;20210;-59
2023/04/14 09:26:16;;;;;;;3.20;2.83;;;;;;;15.90;52.18;95956.25;5054458;28;20207;-59
2023/04/14 09:28:42;;;;;;;4.75;1.77;;;;;;;15.39;53.31;95952.84;5054586;28;20310;-59
2023/04/14 09:31:11;;;;;;;4.70;2.60;;;;;;;15.66;52.11;95953.97;5054618;28;20214;-58
2023/04/14 09:33:39;;;;;;;4.15;1.92;;;;;;;15.43;50.46;95945.31;5054542;28;20241;-59
2023/04/14 09:36:06;;;;;;;3.22;1.40;;;;;;;14.97;52.18;95946.66;5054658;28;20268;-57
2023/04/14 09:38:33;;;;;;;4.05;1.65;;;;;;;14.55;52.52;95948.19;5054792;28;20300;-59
2023/04/14 09:41:00;;;;;;;2.33;1.35;;;;;;;14.01;55.12;95957.34;5046953;28;20234;-59
2023/04/14 09:43:28;;;;;;;7.57;4.93;;;;;;;13.80;56.28;95948.25;5054465;28;20305;-59
2023/04/14 09:45:55;;;;;;;3.17;1.88;;;;;;;13.55;57.27;95946.81;5056632;28;20227;-58
2023/04/14 09:48:24;;;;;;;4.10;1.88;;;;;;;13.30;53.41;95946.16;5054046;28;20218;-59
2023/04/14 09:50:58;;;;;;;4.30;2.03;;;;;;;13.21;57.25;95933.13;5054486;28;20203;-59
2023/04/14 09:53:26;;;;;;;5.65;1.88;;;;;;;12.98;59.55;95943.66;5054571;28;20765;-59
2023/04/14 09:55:53;;;;;;;3.17;1.57;;;;;;;12.88;61.20;95943.06;5054622;28;20203;-59
2023/04/14 09:58:21;;;;;;;2.33;1.63;;;;;;;12.66;58.71;95949.97;5054437;28;20215;-59
2023/04/14 10:00:47;;;;;;;3.73;1.83;;;;;;;12.47;58.44;95940.59;5054305;28;20206;-60
2023/04/14 10:03:14;;;;;;;5.23;1.70;;;;;;;12.37;57.28;95939.13;5045922;28;20233;-59
2023/04/14 10:05:46;;;;;;;5.03;1.80;;;;;;;12.48;59.70;95929.00;5054317;28;20284;-59
2023/04/14 10:08:12;;;;;;;5.33;2.13;;;;;;;12.70;58.43;95929.22;5054510;28;20230;-58
2023/04/14 10:10:39;;;;;;;3.87;1.53;;;;;;;12.63;58.92;95921.16;5054235;28;20210;-59
2023/04/14 10:13:07;;;;;;;3.73;1.60;;;;;;;12.87;56.42;95922.84;5054301;28;20626;-59
2023/04/14 10:15:33;;;;;;;2.50;1.73;;;;;;;12.98;57.91;95922.44;5054232;28;20234;-59
2023/04/14 10:18:00;;;;;;;5.53;2.00;;;;;;;12.92;58.04;95913.38;5055498;28;20210;-59
2023/04/14 10:20:27;;;;;;;3.50;2.07;;;;;;;12.85;57.52;95919.53;5054416;28;20207;-60
2023/04/14 10:22:55;;;;;;;5.03;1.93;;;;;;;13.04;60.20;95923.59;5053953;28;20258;-59
2023/04/14 10:25:22;;;;;;;2.93;1.47;;;;;;;12.93;57.49;95916.84;5053804;28;20219;-58
2023/04/14 10:27:48;;;;;;;3.87;1.90;;;;;;;13.24;59.73;95914.19;5053647;28;20214;-58
2023/04/14 10:30:15;;;;;;;3.40;1.30;;;;;;;13.46;56.13;95916.00;5053625;28;20215;-59
2023/04/14 10:32:44;;;;;;;4.43;1.50;;;;;;;13.79;57.49;95901.41;5054146;28;20628;-59
2023/04/14 10:35:12;;;;;;;3.17;1.80;;;;;;;13.88;54.85;95905.66;5057064;28;20258;-59
2023/04/14 10:37:40;;;;;;;3.10;1.73;;;;;;;13.77;52.47;95902.59;5059166;28;20207;-58
2023/04/14 10:40:09;;;;;;;3.93;1.30;;;;;;;13.84;54.27;95900.88;5054527;28;20218;-59
2023/04/14 10:42:51;;;;;;;2.00;1.47;;;;;;;13.74;56.12;95898.50;5053914;28;20666;-59
2023/04/14 10:45:18;;;;;;;3.50;1.70;;;;;;;13.62;53.64;95896.44;5050964;28;20553;-59
2023/04/14 10:47:45;;;;;;;2.80;1.53;;;;;;;13.55;56.39;95893.69;5047069;28;20225;-59
2023/04/14 10:50:13;;;;;;;4.07;1.33;;;;;;;13.48;55.24;95887.44;5053653;28;20272;-59
2023/04/14 10:52:49;;;;;;;5.80;1.87;;;;;;;13.30;53.22;95889.56;5055131;28;20256;-59
2023/04/14 10:55:17;;;;;;;3.83;1.70;;;;;;;13.23;55.75;95883.31;5039624;28;20203;-59
2023/04/14 10:57:45;;;;;;;2.70;1.40;;;;;;;13.32;53.99;95876.94;5054495;28;20655;-59
2023/04/14 11:00:26;;;;;;;2.77;1.97;;;;;;;13.04;54.95;95878.47;5059334;28;20214;-58
2023/04/14 11:02:57;;;;;;;3.70;1.80;;;;;;;12.87;59.20;95869.75;5056730;28;20227;-58
2023/04/14 11:05:24;;;;;;;3.37;1.27;;;;;;;12.88;58.51;95877.56;5057304;28;20219;-58
2023/04/14 11:07:54;;;;;;;4.83;1.90;;;;;;;12.90;55.33;95866.75;5057008;28;20204;-58
2023/04/14 11:10:49;;;;;;;2.37;1.33;;;;;;;12.64;57.62;95860.97;5057608;28;20211;-58
2023/04/14 11:13:16;;;;;;;2.67;1.10;;;;;;;12.60;56.80;95862.31;5045457;28;20231;-58
2023/04/14 11:15:44;;;;;;;6.40;1.80;;;;;;;12.55;55.58;95856.69;5072578;28;20205;-59
2023/04/14 11:18:13;;;;;;;4.50;1.80;;;;;;;12.55;57.96;95851.38;5056625;28;20225;-60
2023/04/14 11:20:40;;;;;;;2.90;1.43;;;;;;;12.65;55.94;95850.16;5059700;28;20203;-59
2023/04/14 11:23:07;;;;;;;1.63;1.33;;;;;;;12.62;58.07;95853.19;5059750;28;20292;-58
2023/04/14 11:25:34;;;;;;;2.07;1.50;;;;;;;12.71;56.86;95846.00;5060390;28;20215;-59
2023/04/14 11:28:03;;;;;;;3.93;1.70;;;;;;;12.55;55.84;95844.25;5057378;28;20211;-58
2023/04/14 11:30:29;;;;;;;4.17;1.93;;;;;;;12.59;52.84;95839.44;5058225;28;20583;-58
2023/04/14 11:32:57;;;;;;;7.40;1.80;;;;;;;12.77;54.50;95843.47;5057204;28;20644;-58
2023/04/14 11:35:26;;;;;;;6.30;1.97;;;;;;;12.98;52.08;95838.34;5056404;28;20559;-58
2023/04/14 11:37:53;;;;;;;4.00;1.30;;;;;;;13.53;51.01;95837.25;5057109;28;20213;-60